CheckWX is a tool to help pilots better visualize weather data.  It is not intended as a substitute for an official pre-flight weather briefing.

16:38:21 UTC

EGLF METAR
Farnborough Airport
Farnborough, United Kingdom
Current

18 mins ago

EGLF 071620Z AUTO 22010KT 9999 OVC025/// 09/06 Q1013
Observed
Dec-7 @ 16:20 UTC
Wind
  • 220° at 10 KTS
Visibility
10,000+ meters
Flight Rules
MVFR
Cloud Levels
  • Overcast at 2,500' AGL
Temperature
C / 48°F
Dewpoint
C / 43°F
Humidity
82%
Altimeter
29.91" Hg
Pressure
1012.92 hPa
Previous

48 mins ago

EGLF 071550Z AUTO 22009KT 9999 OVC024/// 10/06 Q1013
Observed
Dec-7 @ 15:50 UTC
Wind
  • 220° at 9 KTS
Visibility
10,000+ meters
Flight Rules
MVFR
Cloud Levels
  • Overcast at 2,400' AGL
Temperature
10°C / 50°F
Dewpoint
C / 43°F
Humidity
76%
Altimeter
29.91" Hg
Pressure
1012.92 hPa
Previous

1 hour ago

EGLF 071520Z AUTO 24010KT 9999 OVC025/// 10/05 Q1013
Observed
Dec-7 @ 15:20 UTC
Wind
  • 240° at 10 KTS
Visibility
10,000+ meters
Flight Rules
MVFR
Cloud Levels
  • Overcast at 2,500' AGL
Temperature
10°C / 50°F
Dewpoint
C / 41°F
Humidity
71%
Altimeter
29.91" Hg
Pressure
1012.92 hPa